createdAt,value
2022-08-18T00:01:16.099Z,8.00
2022-08-18T00:06:28.670Z,8.60
2022-08-18T00:08:59.240Z,8.93
2022-08-18T00:11:28.090Z,8.52
2022-08-18T00:14:11.633Z,8.35
2022-08-18T00:16:50.012Z,8.95
2022-08-18T00:19:18.398Z,9.68
2022-08-18T00:21:46.570Z,9.85
2022-08-18T00:24:14.706Z,11.75
2022-08-18T00:26:43.452Z,10.02
2022-08-18T00:29:17.252Z,8.90
2022-08-18T00:31:45.501Z,9.90
2022-08-18T00:34:14.919Z,9.95
2022-08-18T00:36:43.433Z,9.30
2022-08-18T00:39:12.285Z,9.77
2022-08-18T00:41:40.479Z,9.02
2022-08-18T00:44:08.965Z,10.20
2022-08-18T00:46:38.664Z,10.07
2022-08-18T00:49:07.538Z,9.73
2022-08-18T00:51:42.699Z,11.10
2022-08-18T00:54:16.235Z,10.48
2022-08-18T00:56:47.525Z,10.45
2022-08-18T00:59:24.988Z,12.93
2022-08-18T01:01:55.831Z,12.23
2022-08-18T01:04:29.330Z,12.38
2022-08-18T01:07:03.376Z,12.75
2022-08-18T01:09:32.431Z,13.40
2022-08-18T01:12:00.486Z,14.60
2022-08-18T01:14:41.291Z,12.68
2022-08-18T01:17:35.195Z,12.25
2022-08-18T01:20:21.790Z,12.02
2022-08-18T01:22:59.425Z,12.73
2022-08-18T01:25:46.263Z,12.95
2022-08-18T01:28:18.398Z,13.13
2022-08-18T01:30:49.684Z,13.98
2022-08-18T01:33:18.425Z,12.80
2022-08-18T01:35:49.696Z,12.60
2022-08-18T01:38:22.643Z,14.75
2022-08-18T01:41:17.270Z,13.40
2022-08-18T01:43:41.004Z,14.52
2022-08-18T01:46:09.181Z,13.00
2022-08-18T01:48:38.463Z,15.95
2022-08-18T01:51:09.930Z,16.83
2022-08-18T01:53:40.143Z,21.77
2022-08-18T01:56:09.880Z,27.52
2022-08-18T01:58:38.195Z,30.80
2022-08-18T02:01:06.851Z,28.90
2022-08-18T02:03:39.914Z,33.05
2022-08-18T02:06:12.046Z,34.75
2022-08-18T02:08:46.489Z,34.38
2022-08-18T02:11:21.850Z,37.33
2022-08-18T02:13:50.152Z,34.15
2022-08-18T02:16:18.564Z,39.35
2022-08-18T02:18:47.638Z,37.45
2022-08-18T02:21:20.216Z,36.03
2022-08-18T02:23:53.594Z,37.65
2022-08-18T02:26:23.886Z,38.97
2022-08-18T02:28:52.385Z,40.28
2022-08-18T02:31:23.767Z,35.25
2022-08-18T02:33:53.121Z,39.38
2022-08-18T02:36:23.994Z,36.80
2022-08-18T02:38:59.841Z,36.15
2022-08-18T02:41:29.583Z,37.38
2022-08-18T02:43:59.061Z,36.35
2022-08-18T02:46:29.275Z,35.10
2022-08-18T02:49:00.662Z,34.63
2022-08-18T02:51:28.789Z,33.97
2022-08-18T02:53:59.670Z,32.17
2022-08-18T02:56:40.078Z,33.67
2022-08-18T02:59:13.289Z,31.80
2022-08-18T03:01:44.467Z,30.30
2022-08-18T03:04:15.581Z,29.80
2022-08-18T03:06:45.359Z,27.10
2022-08-18T03:09:17.398Z,26.40
2022-08-18T03:11:48.662Z,26.20
2022-08-18T03:14:17.511Z,24.05
2022-08-18T03:16:54.285Z,23.75
2022-08-18T03:19:24.646Z,22.95
2022-08-18T03:21:53.205Z,22.48
2022-08-18T03:24:23.881Z,22.70
2022-08-18T03:26:54.457Z,22.35
2022-08-18T03:29:25.534Z,20.20
2022-08-18T03:31:57.765Z,20.13
2022-08-18T03:34:25.949Z,20.25
2022-08-18T03:36:54.505Z,21.50
2022-08-18T03:39:25.127Z,18.50
2022-08-18T03:41:59.472Z,18.92
2022-08-18T03:44:31.549Z,19.58
2022-08-18T03:47:01.007Z,18.40
2022-08-18T03:49:29.252Z,19.02
2022-08-18T03:52:01.004Z,18.13
2022-08-18T03:54:33.298Z,21.75
2022-08-18T03:57:01.919Z,21.23
2022-08-18T03:59:31.809Z,19.63
2022-08-18T04:02:00.596Z,19.63
2022-08-18T04:04:29.743Z,22.33
2022-08-18T04:07:00.575Z,19.30
2022-08-18T04:09:33.001Z,19.90
2022-08-18T04:12:15.496Z,19.85
2022-08-18T04:14:48.840Z,29.73
2022-08-18T04:17:23.816Z,26.17
2022-08-18T04:19:52.738Z,22.95
2022-08-18T04:22:21.488Z,22.00
2022-08-18T04:24:51.301Z,20.73
2022-08-18T04:27:20.565Z,19.38
2022-08-18T04:29:49.039Z,19.65
2022-08-18T04:32:17.314Z,18.73
2022-08-18T04:34:45.825Z,17.55
2022-08-18T04:37:15.335Z,19.88
2022-08-18T04:39:44.117Z,18.88
2022-08-18T04:42:13.725Z,17.15
2022-08-18T04:44:42.285Z,19.38
2022-08-18T04:47:13.108Z,18.63
2022-08-18T04:49:41.636Z,21.40
2022-08-18T04:52:40.266Z,19.65
2022-08-18T04:55:10.114Z,20.48
2022-08-18T04:57:39.697Z,21.45
2022-08-18T05:00:11.033Z,22.55
2022-08-18T05:02:39.210Z,23.38
2022-08-18T05:05:08.322Z,20.60
2022-08-18T05:07:36.814Z,21.08
2022-08-18T05:10:05.846Z,23.38
2022-08-18T05:12:34.191Z,20.55
2022-08-18T05:15:03.794Z,20.10
2022-08-18T05:17:50.348Z,19.42
2022-08-18T05:20:20.239Z,17.73
2022-08-18T05:22:49.404Z,18.60
2022-08-18T05:25:18.292Z,15.65
2022-08-18T05:27:46.552Z,16.77
2022-08-18T05:30:15.608Z,15.32
2022-08-18T05:32:50.173Z,13.93
2022-08-18T05:35:23.259Z,13.65
2022-08-18T05:38:24.325Z,12.40
2022-08-18T05:41:06.127Z,12.63
2022-08-18T05:43:35.343Z,12.60
2022-08-18T05:46:11.050Z,12.90
2022-08-18T05:48:43.785Z,13.85
2022-08-18T05:51:17.589Z,12.43
2022-08-18T05:54:03.860Z,14.23
2022-08-18T05:56:49.763Z,13.65
2022-08-18T05:59:23.788Z,11.57
2022-08-18T06:01:57.912Z,11.95
2022-08-18T06:04:36.398Z,11.15
2022-08-18T06:07:08.803Z,11.65
2022-08-18T06:09:43.434Z,12.18
2022-08-18T06:12:22.683Z,12.10
2022-08-18T06:14:52.569Z,10.65
2022-08-18T06:17:49.996Z,11.90
2022-08-18T06:20:27.676Z,10.02
2022-08-18T06:23:03.785Z,10.00
2022-08-18T06:25:38.436Z,10.05
2022-08-18T06:28:11.083Z,9.32
2022-08-18T06:30:49.707Z,9.20
2022-08-18T06:33:38.641Z,10.98
2022-08-18T06:36:19.282Z,8.98
2022-08-18T06:39:02.893Z,8.95
2022-08-18T06:41:43.110Z,9.52
2022-08-18T06:44:17.569Z,9.27
2022-08-18T06:46:50.085Z,8.18
2022-08-18T06:49:36.088Z,10.10
2022-08-18T06:52:21.751Z,8.32
2022-08-18T06:54:51.593Z,8.70
2022-08-18T06:57:26.583Z,9.20
2022-08-18T07:00:07.661Z,8.10
2022-08-18T07:02:49.300Z,8.85
2022-08-18T07:05:22.139Z,9.45
2022-08-18T07:08:15.497Z,8.25
2022-08-18T07:10:48.604Z,7.25
2022-08-18T07:13:30.077Z,7.18
2022-08-18T07:16:26.447Z,7.40
2022-08-18T07:19:08.793Z,6.85
2022-08-18T07:21:40.974Z,8.10
2022-08-18T07:24:24.875Z,6.60
2022-08-18T07:27:02.223Z,7.30
2022-08-18T07:29:32.385Z,8.07
2022-08-18T07:32:04.368Z,7.47
2022-08-18T07:34:37.351Z,7.05
2022-08-18T07:37:12.471Z,8.20
2022-08-18T07:39:48.607Z,7.60
2022-08-18T07:42:37.323Z,8.30
2022-08-18T07:45:23.908Z,9.75
2022-08-18T07:48:07.141Z,9.85
2022-08-18T07:50:58.854Z,7.20
2022-08-18T07:53:38.778Z,9.02
2022-08-18T07:56:16.207Z,9.02
2022-08-18T07:58:50.089Z,7.63
2022-08-18T08:01:25.707Z,7.47
2022-08-18T08:04:00.174Z,7.78
2022-08-18T08:06:33.889Z,7.93
2022-08-18T08:09:12.573Z,10.20
2022-08-18T08:11:54.350Z,8.15
2022-08-18T08:14:35.666Z,7.88
2022-08-18T08:17:11.238Z,10.80
2022-08-18T08:20:00.830Z,7.63
2022-08-18T08:22:37.525Z,6.45
2022-08-18T08:25:44.666Z,7.93
2022-08-18T08:28:13.202Z,7.60
2022-08-18T08:30:49.347Z,8.02
2022-08-18T08:33:25.354Z,6.28
2022-08-18T08:36:00.523Z,9.13
2022-08-18T08:38:43.124Z,8.15
2022-08-18T08:41:19.563Z,6.88
2022-08-18T08:43:54.911Z,7.90
2022-08-18T08:46:25.937Z,8.45
2022-08-18T08:49:00.136Z,8.60
2022-08-18T08:51:35.002Z,8.57
2022-08-18T08:54:10.335Z,8.38
2022-08-18T08:56:45.847Z,7.28
2022-08-18T08:59:17.815Z,9.13
2022-08-18T09:01:52.809Z,7.90
2022-08-18T09:04:34.082Z,7.32
2022-08-18T09:07:16.713Z,6.75
2022-08-18T09:10:08.786Z,6.38
2022-08-18T09:12:57.605Z,5.22
2022-08-18T09:15:43.290Z,6.82
2022-08-18T09:18:28.214Z,5.38
2022-08-18T09:21:07.215Z,5.90
2022-08-18T09:23:42.432Z,5.22
2022-08-18T09:26:25.459Z,6.00
2022-08-18T09:28:57.598Z,6.32
2022-08-18T09:31:31.826Z,5.72
2022-08-18T09:34:31.915Z,5.43
2022-08-18T09:37:12.191Z,5.93
2022-08-18T09:40:12.573Z,4.85
2022-08-18T09:45:55.436Z,5.75
2022-08-18T09:48:30.806Z,4.80
2022-08-18T09:51:34.916Z,5.20
2022-08-18T09:54:15.212Z,4.97
2022-08-18T09:57:19.441Z,4.85
2022-08-18T09:59:57.708Z,3.72
2022-08-18T10:03:13.700Z,4.05
2022-08-18T10:06:15.560Z,3.53
2022-08-18T10:09:36.596Z,4.93
2022-08-18T10:12:27.272Z,4.45
2022-08-18T10:15:33.453Z,4.53
2022-08-18T10:18:21.476Z,2.83
2022-08-18T10:21:03.600Z,3.45
2022-08-18T10:24:14.704Z,2.75
2022-08-18T10:27:13.676Z,3.20
2022-08-18T10:29:56.969Z,3.17
2022-08-18T10:32:39.857Z,2.50
2022-08-18T10:35:52.670Z,2.33
2022-08-18T10:38:30.941Z,2.93
2022-08-18T10:41:09.917Z,2.78
2022-08-18T10:46:42.691Z,2.55
2022-08-18T10:49:25.756Z,2.05
2022-08-18T10:52:26.944Z,3.67
2022-08-18T10:55:19.589Z,2.60
2022-08-18T10:58:08.231Z,2.60
2022-08-18T11:00:49.499Z,2.60
2022-08-18T11:03:51.135Z,2.53
2022-08-18T11:06:24.632Z,2.70
2022-08-18T11:11:52.728Z,2.60
2022-08-18T11:15:00.228Z,2.38
2022-08-18T11:17:40.622Z,2.35
2022-08-18T11:20:14.379Z,2.17
2022-08-18T11:22:56.537Z,1.63
2022-08-18T11:25:32.339Z,1.52
2022-08-18T11:28:03.872Z,1.60
2022-08-18T11:30:36.968Z,1.63
2022-08-18T11:33:06.504Z,1.42
2022-08-18T11:35:47.260Z,1.90
2022-08-18T11:38:21.090Z,1.80
2022-08-18T11:41:12.984Z,1.60
2022-08-18T11:43:47.599Z,1.80
2022-08-18T11:46:29.788Z,1.88
2022-08-18T11:49:01.797Z,2.10
2022-08-18T11:51:32.678Z,3.00
2022-08-18T11:54:05.120Z,2.88
2022-08-18T11:56:38.464Z,2.40
2022-08-18T11:59:52.183Z,2.97
2022-08-18T12:02:25.302Z,2.90
2022-08-18T12:05:03.356Z,2.90
2022-08-18T12:07:37.822Z,2.78
2022-08-18T12:10:26.480Z,2.65
2022-08-18T12:12:59.692Z,2.30
2022-08-18T12:15:44.406Z,2.25
2022-08-18T12:18:26.430Z,2.72
2022-08-18T12:20:58.703Z,2.78
2022-08-18T12:23:27.987Z,3.25
2022-08-18T12:26:27.021Z,3.20
2022-08-18T12:29:01.450Z,2.50
2022-08-18T12:31:42.369Z,2.72
2022-08-18T12:34:24.732Z,2.25
2022-08-18T12:36:56.887Z,2.20
2022-08-18T12:39:25.512Z,2.17
2022-08-18T12:41:53.889Z,2.20
2022-08-18T12:44:22.337Z,2.55
2022-08-18T12:46:50.701Z,2.45
2022-08-18T12:49:23.079Z,2.42
2022-08-18T12:51:54.733Z,2.53
2022-08-18T12:54:25.119Z,2.42
2022-08-18T12:56:56.025Z,2.63
2022-08-18T12:59:33.071Z,2.50
2022-08-18T13:02:01.739Z,4.85
2022-08-18T13:04:31.372Z,3.40
2022-08-18T13:07:05.829Z,2.90
2022-08-18T13:09:48.352Z,2.30
2022-08-18T13:12:24.228Z,2.20
2022-08-18T13:14:55.154Z,2.80
2022-08-18T13:17:32.175Z,2.47
2022-08-18T13:20:08.130Z,2.22
2022-08-18T13:22:36.944Z,2.33
2022-08-18T13:25:07.266Z,2.20
2022-08-18T13:27:37.646Z,2.50
2022-08-18T13:30:30.851Z,2.22
2022-08-18T13:33:05.373Z,2.40
2022-08-18T13:35:44.231Z,2.28
2022-08-18T13:38:21.822Z,2.45
2022-08-18T13:40:51.344Z,2.75
2022-08-18T13:43:23.665Z,2.28
2022-08-18T13:45:53.271Z,2.17
2022-08-18T13:48:25.776Z,2.20
2022-08-18T13:50:56.750Z,2.30
2022-08-18T13:53:27.362Z,2.20
2022-08-18T13:55:58.005Z,2.22
2022-08-18T13:58:28.764Z,2.50
2022-08-18T14:01:15.851Z,1.90
2022-08-18T14:03:47.683Z,2.00
2022-08-18T14:06:22.664Z,2.70
2022-08-18T14:08:53.700Z,2.05
2022-08-18T14:11:27.363Z,2.03
2022-08-18T14:13:56.884Z,2.33
2022-08-18T14:16:26.804Z,2.20
2022-08-18T14:19:14.026Z,2.65
2022-08-18T14:22:03.637Z,2.38
2022-08-18T14:24:53.134Z,2.67
2022-08-18T14:27:27.270Z,3.00
2022-08-18T14:30:06.940Z,2.60
2022-08-18T14:32:36.626Z,2.38
2022-08-18T14:35:33.183Z,3.05
2022-08-18T14:38:09.945Z,2.58
2022-08-18T14:40:41.823Z,3.00
2022-08-18T14:43:11.919Z,2.60
2022-08-18T14:45:49.113Z,2.83
2022-08-18T14:48:20.442Z,2.50
2022-08-18T14:50:50.609Z,2.72
2022-08-18T14:53:21.768Z,2.42
2022-08-18T14:55:52.518Z,2.70
2022-08-18T14:58:21.746Z,2.78
2022-08-18T15:00:54.242Z,2.60
2022-08-18T15:03:31.316Z,2.80
2022-08-18T15:06:04.807Z,3.05
2022-08-18T15:08:37.454Z,2.90
2022-08-18T15:11:11.625Z,2.67
2022-08-18T15:13:43.631Z,2.38
2022-08-18T15:16:14.405Z,2.47
2022-08-18T15:18:42.831Z,3.22
2022-08-18T15:21:35.745Z,3.40
2022-08-18T15:24:26.918Z,2.88
2022-08-18T15:27:05.678Z,3.78
2022-08-18T15:29:35.222Z,2.92
2022-08-18T15:32:05.794Z,2.92
2022-08-18T15:34:46.510Z,3.17
2022-08-18T15:37:19.613Z,3.17
2022-08-18T15:39:55.572Z,3.50
2022-08-18T15:42:25.116Z,4.10
2022-08-18T15:44:53.938Z,3.30
2022-08-18T15:47:25.101Z,3.45
2022-08-18T15:49:54.766Z,3.00
2022-08-18T15:52:25.923Z,3.33
2022-08-18T15:55:01.979Z,3.20
2022-08-18T15:57:38.853Z,2.92
2022-08-18T16:00:12.247Z,3.58
2022-08-18T16:02:48.386Z,4.00
2022-08-18T16:05:18.224Z,3.42
2022-08-18T16:07:47.833Z,3.15
2022-08-18T16:10:22.247Z,3.63
2022-08-18T16:12:51.550Z,3.53
2022-08-18T16:15:23.228Z,4.35
2022-08-18T16:17:53.122Z,6.43
2022-08-18T16:20:23.573Z,4.22
2022-08-18T16:22:53.352Z,3.33
2022-08-18T16:25:22.977Z,3.92
2022-08-18T16:27:51.168Z,3.97
2022-08-18T16:30:22.008Z,4.88
2022-08-18T16:32:50.644Z,4.28
2022-08-18T16:35:20.059Z,4.57
2022-08-18T16:37:49.131Z,3.70
2022-08-18T16:40:19.017Z,3.92
2022-08-18T16:42:49.167Z,3.42
2022-08-18T16:45:23.052Z,3.50
2022-08-18T16:47:51.503Z,3.03
2022-08-18T16:50:20.416Z,3.15
2022-08-18T16:52:48.633Z,3.13
2022-08-18T16:55:16.918Z,3.80
2022-08-18T16:58:03.317Z,5.47
2022-08-18T17:00:54.631Z,5.53
2022-08-18T17:03:40.881Z,3.88
2022-08-18T17:06:10.991Z,3.40
2022-08-18T17:08:40.472Z,3.55
2022-08-18T17:11:11.380Z,3.72
2022-08-18T17:13:40.172Z,3.35
2022-08-18T17:16:11.156Z,3.15
2022-08-18T17:18:39.788Z,3.80
2022-08-18T17:21:10.568Z,3.42
2022-08-18T17:23:39.619Z,3.70
2022-08-18T17:26:10.022Z,4.22
2022-08-18T17:28:46.114Z,4.60
2022-08-18T17:31:21.418Z,4.30
2022-08-18T17:33:49.545Z,3.92
2022-08-18T17:36:22.987Z,4.38
2022-08-18T17:38:57.261Z,3.20
2022-08-18T17:43:57.287Z,3.13
2022-08-18T17:46:30.385Z,3.55
2022-08-18T17:49:01.819Z,3.13
2022-08-18T17:51:35.065Z,3.05
2022-08-18T17:54:10.058Z,3.00
2022-08-18T17:56:41.480Z,2.88
2022-08-18T17:59:45.490Z,3.30
2022-08-18T18:02:18.361Z,2.75
2022-08-18T18:04:59.827Z,2.70
2022-08-18T18:07:31.375Z,2.40
2022-08-18T18:10:02.779Z,2.45
2022-08-18T18:12:34.326Z,2.78
2022-08-18T18:15:03.748Z,2.55
2022-08-18T18:17:37.647Z,2.55
2022-08-18T18:20:16.255Z,2.90
2022-08-18T18:22:45.668Z,6.63
2022-08-18T18:25:30.200Z,3.47
2022-08-18T18:28:03.477Z,4.30
2022-08-18T18:30:32.813Z,3.10
2022-08-18T18:33:05.541Z,2.90
2022-08-18T18:35:54.433Z,3.00
2022-08-18T18:38:29.452Z,2.83
2022-08-18T18:41:01.052Z,3.20
2022-08-18T18:43:36.131Z,5.57
2022-08-18T18:46:29.892Z,5.00
2022-08-18T18:49:13.686Z,3.72
2022-08-18T18:51:50.533Z,3.30
2022-08-18T18:54:38.021Z,2.90
2022-08-18T18:57:13.260Z,2.88
2022-08-18T19:02:34.538Z,3.25
2022-08-18T19:05:19.412Z,2.95
2022-08-18T19:08:19.078Z,2.40
2022-08-18T19:10:57.557Z,2.60
2022-08-18T19:13:32.894Z,3.08
2022-08-18T19:16:23.932Z,2.60
2022-08-18T19:19:35.383Z,2.95
2022-08-18T19:22:05.757Z,2.40
2022-08-18T19:24:40.300Z,2.40
2022-08-18T19:27:16.614Z,2.40
2022-08-18T19:29:47.444Z,3.25
2022-08-18T19:32:20.588Z,2.65
2022-08-18T19:34:51.391Z,2.85
2022-08-18T19:37:31.048Z,2.30
2022-08-18T19:40:09.663Z,2.53
2022-08-18T19:42:42.863Z,2.47
2022-08-18T19:45:22.350Z,2.45
2022-08-18T19:47:55.525Z,2.63
2022-08-18T19:50:30.588Z,2.20
2022-08-18T19:53:13.665Z,1.98
2022-08-18T19:56:01.598Z,2.47
2022-08-18T19:59:12.992Z,2.20
2022-08-18T20:01:55.279Z,2.35
2022-08-18T20:04:39.714Z,2.30
2022-08-18T20:07:52.071Z,2.63
2022-08-18T20:10:47.771Z,2.00
2022-08-18T20:13:32.906Z,2.20
2022-08-18T20:16:44.269Z,2.45
2022-08-18T20:19:42.832Z,2.20
2022-08-18T20:22:27.934Z,2.42
2022-08-18T20:24:59.593Z,2.25
2022-08-18T20:27:36.450Z,2.15
2022-08-18T20:30:33.003Z,2.08
2022-08-18T20:33:21.467Z,2.08
2022-08-18T20:36:00.300Z,2.67
2022-08-18T20:38:35.033Z,2.30
2022-08-18T20:41:41.967Z,2.05
2022-08-18T20:44:38.059Z,2.33
2022-08-18T20:47:23.664Z,2.30
2022-08-18T20:50:03.987Z,2.22
2022-08-18T20:52:43.269Z,2.22
2022-08-18T20:55:20.761Z,2.15
2022-08-18T20:57:55.164Z,2.53
2022-08-18T21:00:27.398Z,2.13
2022-08-18T21:02:57.950Z,2.40
2022-08-18T21:05:28.642Z,2.20
2022-08-18T21:08:03.348Z,2.63
2022-08-18T21:10:33.187Z,2.60
2022-08-18T21:13:04.174Z,2.55
2022-08-18T21:15:36.475Z,2.33
2022-08-18T21:18:07.084Z,2.75
2022-08-18T21:20:36.613Z,2.53
2022-08-18T21:23:08.557Z,2.80
2022-08-18T21:25:37.559Z,2.92
2022-08-18T21:28:07.674Z,2.60
2022-08-18T21:30:38.067Z,2.40
2022-08-18T21:33:20.126Z,2.55
2022-08-18T21:35:48.393Z,2.42
2022-08-18T21:38:24.149Z,2.42
2022-08-18T21:40:57.252Z,2.80
2022-08-18T21:43:43.604Z,2.90
2022-08-18T21:46:26.397Z,2.95
2022-08-18T21:48:56.965Z,3.15
2022-08-18T21:51:28.890Z,2.47
2022-08-18T21:53:57.224Z,2.90
2022-08-18T21:56:29.492Z,3.08
2022-08-18T21:59:10.560Z,2.85
2022-08-18T22:01:49.481Z,2.70
2022-08-18T22:04:25.674Z,3.15
2022-08-18T22:06:56.510Z,3.13
2022-08-18T22:09:44.405Z,3.08
2022-08-18T22:12:48.844Z,3.10
2022-08-18T22:15:19.863Z,3.25
2022-08-18T22:17:56.856Z,2.97
2022-08-18T22:20:43.253Z,3.33
2022-08-18T22:23:51.516Z,3.13
2022-08-18T22:26:23.762Z,3.08
2022-08-18T22:28:57.953Z,3.03
2022-08-18T22:33:57.377Z,3.10
2022-08-18T22:36:29.372Z,3.30
2022-08-18T22:38:57.726Z,2.90
2022-08-18T22:41:26.194Z,3.72
2022-08-18T22:43:55.603Z,3.85
2022-08-18T22:46:25.262Z,3.40
2022-08-18T22:48:54.282Z,3.40
2022-08-18T22:51:26.479Z,3.70
2022-08-18T22:53:55.786Z,3.88
2022-08-18T22:56:34.588Z,3.92
2022-08-18T22:59:15.856Z,3.92
2022-08-18T23:01:50.985Z,4.47
2022-08-18T23:04:22.357Z,4.07
2022-08-18T23:06:53.491Z,4.10
2022-08-18T23:09:24.324Z,4.07
2022-08-18T23:11:53.154Z,3.70
2022-08-18T23:14:22.191Z,3.80
2022-08-18T23:16:51.115Z,3.78
2022-08-18T23:19:21.672Z,4.03
2022-08-18T23:21:51.861Z,4.00
2022-08-18T23:24:21.371Z,3.60
2022-08-18T23:26:50.398Z,4.38
2022-08-18T23:29:19.908Z,3.55
2022-08-18T23:31:49.389Z,4.03
2022-08-18T23:34:19.010Z,4.15
2022-08-18T23:36:55.584Z,3.90
2022-08-18T23:39:24.073Z,4.05
2022-08-18T23:41:53.276Z,3.53
2022-08-18T23:44:22.441Z,3.63
2022-08-18T23:46:54.248Z,4.03
2022-08-18T23:49:23.264Z,3.85
2022-08-18T23:51:56.172Z,3.67
2022-08-18T23:54:27.424Z,4.25
2022-08-18T23:56:55.943Z,3.88
2022-08-18T23:59:25.241Z,3.88
